Time;durP1;ratioP1;P1;durP2;ratioP2;P2;SDS_P1;SDS_P2;PMS_P1;PMS_P2;Temp;Humidity;BMP_temperature;BMP_pressure;BME280_temperature;BME280_humidity;BME280_pressure;Samples;Min_cycle;Max_cycle;Signal;HPM_P1;HPM_P2
2022/07/22 00:07:41;;;;;;;8.30;4.70;;;;;;;20.17;53.37;99550.20;430906;1271;141161;-59
2022/07/22 00:17:47;;;;;;;8.50;5.20;;;;;;;19.89;54.21;99549.14;431656;1270;143219;-59
2022/07/22 00:27:53;;;;;;;7.90;4.90;;;;;;;19.67;54.71;99537.59;431487;1271;142465;-59
2022/07/22 00:37:59;;;;;;;8.10;5.10;;;;;;;19.49;55.63;99537.59;430589;1270;144153;-61
2022/07/22 00:48:05;;;;;;;5.30;4.40;;;;;;;19.26;56.47;99534.25;431824;1270;140575;-59
2022/07/22 00:58:11;;;;;;;7.00;5.00;;;;;;;19.11;57.04;99528.30;431175;1271;141051;-60
2022/07/22 01:08:18;;;;;;;11.20;4.70;;;;;;;18.96;57.42;99523.18;430924;1271;140989;-58
2022/07/22 01:18:23;;;;;;;6.30;5.40;;;;;;;18.83;57.81;99528.80;432243;1271;143896;-60
2022/07/22 01:28:29;;;;;;;7.90;5.30;;;;;;;18.63;58.45;99519.92;431130;1270;142420;-59
2022/07/22 01:38:35;;;;;;;6.90;4.20;;;;;;;18.54;58.89;99508.23;431423;1270;142060;-60
2022/07/22 01:48:42;;;;;;;5.40;4.60;;;;;;;18.43;59.09;99495.95;432956;1270;141653;-59
2022/07/22 01:58:47;;;;;;;6.10;5.10;;;;;;;18.33;59.46;99496.64;430817;1270;141790;-59
2022/07/22 02:08:53;;;;;;;7.90;4.60;;;;;;;18.28;59.68;99499.58;431441;1270;193501;-56
2022/07/22 02:19:00;;;;;;;7.80;5.30;;;;;;;18.13;60.29;99508.09;430868;1270;143085;-57
2022/07/22 02:29:06;;;;;;;8.00;4.60;;;;;;;18.02;60.64;99506.30;430811;1271;142062;-58
2022/07/22 02:39:12;;;;;;;6.70;5.40;;;;;;;17.90;61.07;99516.14;430841;1273;143600;-59
2022/07/22 02:49:18;;;;;;;9.90;5.80;;;;;;;17.69;61.50;99532.61;431032;1273;142404;-59
2022/07/22 02:59:24;;;;;;;13.50;6.10;;;;;;;17.53;62.21;99535.86;430538;1271;142360;-57
2022/07/22 03:09:29;;;;;;;9.70;5.60;;;;;;;17.44;62.51;99539.23;431705;1271;147522;-57
2022/07/22 03:19:35;;;;;;;9.60;5.90;;;;;;;17.53;62.90;99541.55;430401;1271;142543;-59
2022/07/22 03:29:41;;;;;;;6.90;4.60;;;;;;;17.91;62.59;99539.77;431666;1270;141987;-59
2022/07/22 03:39:47;;;;;;;8.60;5.40;;;;;;;18.24;62.21;99548.33;431569;1270;142878;-60
2022/07/22 03:49:53;;;;;;;12.00;6.20;;;;;;;18.69;61.77;99543.10;432473;1271;141170;-58
2022/07/22 03:59:59;;;;;;;10.60;5.90;;;;;;;19.19;61.10;99542.90;431829;1270;141985;-59
2022/07/22 04:10:06;;;;;;;9.50;5.60;;;;;;;19.83;60.13;99543.23;432141;1270;142375;-59
2022/07/22 04:20:13;;;;;;;11.90;6.30;;;;;;;21.66;58.94;99560.41;431460;1270;143906;-61
2022/07/22 04:30:19;;;;;;;11.30;5.60;;;;;;;27.18;52.14;99556.27;431521;1271;142393;-58
2022/07/22 04:40:25;;;;;;;10.50;5.60;;;;;;;31.70;44.76;99551.42;430890;1271;142563;-60
2022/07/22 04:50:31;;;;;;;10.50;6.60;;;;;;;35.18;38.79;99560.27;431576;1270;151434;-60
2022/07/22 05:00:37;;;;;;;9.20;6.50;;;;;;;37.87;33.99;99580.48;431854;1270;143757;-59
2022/07/22 05:10:43;;;;;;;10.00;7.40;;;;;;;38.77;30.79;99596.60;430676;1270;141336;-57
2022/07/22 05:20:49;;;;;;;7.80;7.10;;;;;;;39.75;29.00;99608.27;431132;1271;141278;-59
2022/07/22 05:30:54;;;;;;;8.00;7.20;;;;;;;42.05;27.18;99610.64;431532;1271;141247;-57
2022/07/22 05:41:01;;;;;;;9.70;7.30;;;;;;;42.49;25.16;99603.32;431515;1270;144690;-58
2022/07/22 05:51:13;;;;;;;7.80;7.00;;;;;;;39.41;26.31;99594.70;431281;1271;141053;-60
2022/07/22 06:01:19;;;;;;;10.60;8.10;;;;;;;38.20;27.16;99588.21;432065;1270;141661;-62
2022/07/22 06:11:25;;;;;;;9.70;8.80;;;;;;;35.70;29.38;99578.26;432473;1270;141523;-58
2022/07/22 06:21:31;;;;;;;9.50;8.80;;;;;;;39.99;27.00;99578.84;431588;1270;146530;-59
2022/07/22 06:31:37;;;;;;;9.40;7.40;;;;;;;43.06;24.03;99571.74;430970;1271;140839;-58
2022/07/22 06:41:43;;;;;;;8.00;7.10;;;;;;;44.33;22.52;99569.66;431417;1271;141615;-59
2022/07/22 06:51:49;;;;;;;10.90;7.80;;;;;;;43.57;22.13;99567.79;431285;1273;141819;-58
2022/07/22 07:01:55;;;;;;;8.80;7.90;;;;;;;40.80;23.72;99549.79;431046;1271;146054;-58
2022/07/22 07:12:01;;;;;;;8.50;7.10;;;;;;;38.55;25.33;99535.70;431242;1270;140821;-60
2022/07/22 07:22:08;;;;;;;6.40;5.90;;;;;;;40.29;25.03;99545.38;431736;1271;141071;-59
2022/07/22 07:32:14;;;;;;;6.70;4.80;;;;;;;44.23;22.16;99551.61;430470;1271;140439;-59
2022/07/22 07:42:35;;;;;;;8.10;6.20;;;;;;;44.95;20.29;99564.48;431448;1271;141730;-60
2022/07/22 07:52:50;;;;;;;6.20;5.60;;;;;;;45.32;20.19;99576.95;431503;1270;141066;-59
2022/07/22 08:02:58;;;;;;;4.90;4.50;;;;;;;46.18;18.77;99580.66;431665;1271;144244;-58
2022/07/22 08:13:05;;;;;;;9.40;5.70;;;;;;;44.76;19.15;99578.90;431468;1271;140010;-59
2022/07/22 08:23:13;;;;;;;6.30;5.80;;;;;;;40.19;21.88;99562.88;430536;1272;144713;-57
2022/07/22 08:33:19;;;;;;;6.30;5.70;;;;;;;36.49;24.99;99561.02;432168;1271;141229;-60
2022/07/22 08:43:26;;;;;;;6.40;5.60;;;;;;;35.68;26.45;99560.94;430450;1271;141076;-58
2022/07/22 08:53:31;;;;;;;9.10;5.50;;;;;;;34.97;27.30;99557.54;431385;1271;209664;-58
2022/07/22 09:03:47;;;;;;;10.40;6.20;;;;;;;34.21;28.12;99563.13;430746;1270;141120;-58
2022/07/22 09:13:54;;;;;;;6.30;5.80;;;;;;;34.32;28.54;99564.60;432651;1271;196789;-60
2022/07/22 09:24:00;;;;;;;6.90;6.30;;;;;;;34.44;28.58;99572.34;432053;1271;145864;-58
2022/07/22 09:34:05;;;;;;;;;;;;;;;33.85;29.09;99574.52;439926;1271;142333;-59
2022/07/22 09:44:24;;;;;;;6.90;6.20;;;;;;;33.36;29.30;99585.07;437951;1271;127693;-59
2022/07/22 09:54:30;;;;;;;7.10;6.40;;;;;;;33.22;29.98;99587.36;430804;1273;140580;-59
2022/07/22 10:04:37;;;;;;;6.20;5.30;;;;;;;32.90;30.30;99578.58;430918;1272;141688;-58
2022/07/22 10:14:45;;;;;;;12.40;6.20;;;;;;;33.13;30.15;99582.93;431551;1270;141360;-59
2022/07/22 10:25:03;;;;;;;5.40;4.90;;;;;;;33.16;30.23;99582.33;431800;1270;143396;-59
2022/07/22 10:35:26;;;;;;;6.80;5.40;;;;;;;32.59;30.46;99577.77;430618;1271;141953;-58
2022/07/22 10:45:34;;;;;;;7.60;5.50;;;;;;;32.29;31.06;99578.70;432210;1270;141048;-63
2022/07/22 10:55:58;;;;;;;6.90;5.00;;;;;;;32.51;30.62;99572.11;431327;1270;140270;-59
2022/07/22 11:06:16;;;;;;;11.40;5.50;;;;;;;32.43;31.03;99565.10;431814;1270;141513;-58
2022/07/22 11:16:24;;;;;;;7.00;5.80;;;;;;;31.82;31.94;99559.84;432116;1270;141013;-60
2022/07/22 11:26:38;;;;;;;6.80;5.50;;;;;;;31.30;32.73;99556.94;431632;1273;342131;-61
2022/07/22 11:36:47;;;;;;;8.80;5.90;;;;;;;31.66;32.59;99549.73;432130;1272;140632;-62
2022/07/22 11:46:58;;;;;;;5.60;4.60;;;;;;;32.28;32.10;99549.83;430820;1271;142239;-59
2022/07/22 11:57:04;;;;;;;4.70;4.30;;;;;;;32.79;31.56;99544.70;431639;1270;141503;-57
2022/07/22 12:07:13;;;;;;;4.90;4.50;;;;;;;32.39;31.51;99547.09;431171;1270;145722;-58
2022/07/22 12:17:28;;;;;;;8.20;4.90;;;;;;;32.65;31.44;99542.84;430765;1270;141952;-57
2022/07/22 12:27:34;;;;;;;6.00;4.80;;;;;;;32.72;31.09;99536.05;432431;1270;140314;-60
2022/07/22 12:37:44;;;;;;;;;;;;;;;32.87;31.00;99524.87;431204;1270;140998;-60
2022/07/22 12:47:55;;;;;;;6.00;4.40;;;;;;;32.98;31.05;99517.55;431964;1270;127895;-59
2022/07/22 12:58:01;;;;;;;7.10;4.80;;;;;;;33.34;30.71;99511.14;431597;1270;141122;-58
2022/07/22 13:08:08;;;;;;;5.20;4.70;;;;;;;33.39;30.66;99508.82;431137;1270;142960;-57
2022/07/22 13:18:14;;;;;;;4.50;4.10;;;;;;;32.87;31.14;99500.77;431484;1270;141240;-58
2022/07/22 13:28:20;;;;;;;7.10;4.90;;;;;;;33.03;31.16;99496.01;432066;1270;140929;-59
2022/07/22 13:38:26;;;;;;;4.70;4.30;;;;;;;32.76;31.11;99491.05;430942;1271;140114;-58
2022/07/22 13:48:32;;;;;;;4.50;4.10;;;;;;;32.64;31.23;99480.26;431833;1270;141088;-58
2022/07/22 13:58:40;;;;;;;6.40;5.00;;;;;;;32.64;31.55;99468.46;431069;1270;142215;-60
2022/07/22 14:08:46;;;;;;;6.00;4.80;;;;;;;32.68;30.96;99466.68;431859;1269;140973;-59
2022/07/22 14:18:52;;;;;;;4.90;3.70;;;;;;;32.50;31.07;99458.95;430970;1270;140919;-59
2022/07/22 14:28:59;;;;;;;5.90;3.80;;;;;;;32.04;31.45;99460.42;430978;1270;141593;-58
2022/07/22 14:39:06;;;;;;;5.40;3.70;;;;;;;32.07;31.50;99455.92;432041;1270;141286;-58
2022/07/22 14:49:12;;;;;;;3.80;3.50;;;;;;;32.42;30.81;99454.63;431185;1270;140573;-58
2022/07/22 14:59:21;;;;;;;4.00;3.50;;;;;;;32.46;30.16;99450.84;430313;1270;142795;-58
2022/07/22 15:09:28;;;;;;;7.60;4.10;;;;;;;32.27;30.32;99446.81;431729;1270;151149;-59
2022/07/22 15:19:34;;;;;;;5.50;3.20;;;;;;;32.44;30.09;99444.89;430679;1271;142059;-64
2022/07/22 15:29:40;;;;;;;5.60;4.20;;;;;;;32.12;30.40;99438.35;431465;1270;195231;-59
2022/07/22 15:39:46;;;;;;;4.70;3.50;;;;;;;32.00;30.45;99429.04;431435;1269;141473;-58
2022/07/22 15:49:52;;;;;;;10.00;3.50;;;;;;;31.82;30.50;99421.39;431282;1270;144199;-59
2022/07/22 15:59:59;;;;;;;6.20;3.60;;;;;;;31.61;30.49;99415.59;431639;1270;141094;-58
2022/07/22 16:10:06;;;;;;;5.50;3.60;;;;;;;31.38;30.78;99419.92;431679;1270;141943;-57
2022/07/22 16:20:12;;;;;;;4.40;3.80;;;;;;;30.91;31.42;99419.89;431632;1268;141289;-56
2022/07/22 16:30:18;;;;;;;12.20;4.30;;;;;;;30.54;31.80;99423.40;431572;1270;141211;-59
2022/07/22 16:40:25;;;;;;;4.90;3.40;;;;;;;30.46;32.32;99424.15;430820;1270;145845;-58
2022/07/22 16:50:30;;;;;;;4.30;3.00;;;;;;;30.20;32.52;99422.95;432416;1270;142535;-59
2022/07/22 17:00:36;;;;;;;3.40;3.00;;;;;;;29.92;32.84;99420.84;433240;1271;140863;-59
2022/07/22 17:10:45;;;;;;;4.20;3.70;;;;;;;29.70;33.22;99416.48;430623;1270;141852;-57
2022/07/22 17:20:49;;;;;;;;;;;;;;;30.18;33.08;99414.73;432261;1271;144265;-58
2022/07/22 17:30:55;;;;;;;8.90;3.40;;;;;;;30.17;32.90;99420.46;431658;1273;127861;-59
2022/07/22 17:41:01;;;;;;;7.80;3.60;;;;;;;29.63;34.11;99422.34;431170;1270;141829;-59
2022/07/22 17:51:08;;;;;;;9.10;3.80;;;;;;;29.21;35.03;99419.89;431510;1271;142345;-60
2022/07/22 18:01:13;;;;;;;9.50;4.10;;;;;;;28.77;36.27;99425.16;431402;1273;140836;-59
2022/07/22 18:11:19;;;;;;;6.40;4.10;;;;;;;28.43;37.81;99429.13;431504;1270;144979;-60
2022/07/22 18:21:25;;;;;;;30.50;6.20;;;;;;;28.14;38.82;99435.39;431098;1270;146569;-59
2022/07/22 18:31:31;;;;;;;12.00;7.90;;;;;;;27.71;40.26;99435.41;431341;1270;145234;-59
2022/07/22 18:41:37;;;;;;;16.00;7.90;;;;;;;27.17;40.75;99438.70;431461;1271;141621;-59
2022/07/22 18:51:43;;;;;;;13.90;5.90;;;;;;;26.72;42.01;99453.88;431909;1270;146248;-59
2022/07/22 19:01:49;;;;;;;7.80;5.90;;;;;;;26.24;42.78;99465.05;430696;1270;144493;-62
2022/07/22 19:11:55;;;;;;;15.50;7.00;;;;;;;25.78;43.90;99471.34;431376;1270;140596;-60
2022/07/22 19:22:01;;;;;;;17.00;6.60;;;;;;;25.42;44.63;99473.17;431477;1270;142597;-59
2022/07/22 19:32:07;;;;;;;26.00;9.90;;;;;;;25.08;45.67;99475.09;430983;1270;142000;-58
2022/07/22 19:42:13;;;;;;;27.80;8.50;;;;;;;24.72;46.67;99477.11;431785;1270;143280;-59
2022/07/22 19:52:19;;;;;;;15.30;8.50;;;;;;;24.37;47.18;99482.86;431509;1272;142107;-59
2022/07/22 20:02:25;;;;;;;19.40;10.30;;;;;;;24.12;48.10;99483.23;432904;1271;141783;-59
2022/07/22 20:12:31;;;;;;;19.40;10.00;;;;;;;23.78;49.07;99481.94;432115;1270;148530;-57
2022/07/22 20:22:37;;;;;;;14.20;8.60;;;;;;;23.48;50.15;99483.66;431467;1270;142612;-59
2022/07/22 20:32:44;;;;;;;14.10;7.50;;;;;;;23.21;51.17;99485.75;431643;1271;142274;-60
2022/07/22 20:42:49;;;;;;;13.40;7.40;;;;;;;22.96;51.92;99490.41;431670;1270;143510;-59
2022/07/22 20:52:55;;;;;;;24.80;7.90;;;;;;;22.68;52.55;99489.59;431165;1270;146501;-57
2022/07/22 21:03:01;;;;;;;10.80;7.90;;;;;;;22.39;53.70;99485.90;431677;1270;141598;-59
2022/07/22 21:13:07;;;;;;;10.70;7.70;;;;;;;22.12;54.31;99491.92;435968;1270;141746;-59
2022/07/22 21:23:13;;;;;;;9.30;7.60;;;;;;;21.87;54.90;99490.02;446043;1270;144644;-58
2022/07/22 21:33:18;;;;;;;11.10;6.90;;;;;;;21.64;55.74;99493.50;431473;1270;140302;-60
2022/07/22 21:43:25;;;;;;;8.50;7.30;;;;;;;21.45;56.39;99503.74;431227;1270;146331;-59
2022/07/22 21:53:30;;;;;;;11.00;8.40;;;;;;;21.23;56.92;99502.16;431618;1270;147167;-58
2022/07/22 22:03:36;;;;;;;11.30;7.70;;;;;;;20.99;57.70;99499.57;431765;1270;142964;-59
2022/07/22 22:13:42;;;;;;;13.20;7.40;;;;;;;20.81;58.59;99501.31;431236;1270;147636;-59
2022/07/22 22:23:48;;;;;;;9.50;7.20;;;;;;;20.60;59.28;99503.59;431273;1270;146016;-59
2022/07/22 22:33:54;;;;;;;9.60;7.60;;;;;;;20.42;59.89;99505.33;431322;1270;142785;-60
2022/07/22 22:43:59;;;;;;;10.80;8.50;;;;;;;20.18;60.34;99505.66;430928;1270;142793;-59
2022/07/22 22:54:05;;;;;;;10.70;7.80;;;;;;;20.05;61.17;99508.43;431270;1270;141393;-58
2022/07/22 23:04:12;;;;;;;11.90;7.70;;;;;;;20.22;61.20;99508.63;431424;1270;142841;-60
2022/07/22 23:14:18;;;;;;;9.10;8.00;;;;;;;20.14;61.12;99500.75;430786;1270;141750;-59
2022/07/22 23:24:24;;;;;;;10.20;8.10;;;;;;;20.00;61.62;99503.27;431050;1270;533376;-59
2022/07/22 23:34:31;;;;;;;12.70;9.70;;;;;;;19.93;61.64;99505.64;431809;1270;151771;-59
2022/07/22 23:44:36;;;;;;;18.50;13.20;;;;;;;19.68;62.25;99509.36;431867;1270;143292;-60
2022/07/22 23:54:42;;;;;;;23.90;12.80;;;;;;;19.60;62.69;99518.96;431852;1270;141978;-59
